Portada
METAR-TAF:

METAR-TAF

Aeropuertos :

Sankt Moritz, Suiza

latitud: 46-32-03N, longitud: 9-53-03E, altitud: 1707 m

Observación

El informe se hizo hace 16 minutos, a las 22:20 UTC
Viento 4 kt del sur, variando entre sur y oeste
Temperatura -4°C
Humedad 74%
Presión 1015 hPa
Visibilidad 10 km o más

METAR: LSZS 042220Z AUTO 19004KT 170V270 9999 NCD M04/M08 Q1015

Hora: 23:36 (22:36 UTC)

Pronóstico

El informe se hizo hace 8 horas y 11 minutos, a las 14:25 UTC
Pronóstico válido del 04 a las 15 UTC al 04 a las 24 UTC
Viento 8 kt del sur-suroeste
Visibilidad 10 km o más
Nubes dispersas a una altura de 6000 ft
Cielo nuboso a una altura de 7000 ft

TAF: LSZS 041425Z 0415/0424 21008KT 9999 SCT060 BKN070 TX04/0415Z

Observaciones y pronósticos meteorológicos de más de 4000 aeropuertos (mensajes METAR y TAF).

Los puntos amarillos y rojos representan las estaciones disponibles.

Ponga el ratón en el punto deseado para ver el nombre de la estación.

Haga clic para ver las observaciones y los pronósticos meteorológicos.

Para cambiar el mapa : haga clic en los botones verdes con una cruz de color negro para hacer un zoom, en el botón verde con un guión para alejar o en las flechas verdes para mapas adyacentes.


METAR-TAF: